sensor_id;sensor_type;location;lat;lon;timestamp;temperature;humidity
72940;DHT22;61094;51.154;13.570;2022-12-29T00:01:31;9.80;84.80
72940;DHT22;61094;51.154;13.570;2022-12-29T00:03:33;9.80;83.00
72940;DHT22;61094;51.154;13.570;2022-12-29T00:05:35;9.90;82.50
72940;DHT22;61094;51.154;13.570;2022-12-29T00:07:36;9.90;83.70
72940;DHT22;61094;51.154;13.570;2022-12-29T00:09:38;10.00;82.90
72940;DHT22;61094;51.154;13.570;2022-12-29T00:11:40;10.00;82.10
72940;DHT22;61094;51.154;13.570;2022-12-29T00:13:43;10.00;82.90
72940;DHT22;61094;51.154;13.570;2022-12-29T00:16:02;10.10;82.30
72940;DHT22;61094;51.154;13.570;2022-12-29T00:18:03;10.10;85.50
72940;DHT22;61094;51.154;13.570;2022-12-29T00:20:05;10.10;84.30
72940;DHT22;61094;51.154;13.570;2022-12-29T00:22:25;10.10;82.80
72940;DHT22;61094;51.154;13.570;2022-12-29T00:24:44;10.20;82.50
72940;DHT22;61094;51.154;13.570;2022-12-29T00:27:11;10.20;82.20
72940;DHT22;61094;51.154;13.570;2022-12-29T00:29:31;10.20;82.50
72940;DHT22;61094;51.154;13.570;2022-12-29T00:31:51;10.30;84.20
72940;DHT22;61094;51.154;13.570;2022-12-29T00:34:11;10.30;84.20
72940;DHT22;61094;51.154;13.570;2022-12-29T00:36:40;10.30;84.40
72940;DHT22;61094;51.154;13.570;2022-12-29T00:38:46;10.40;85.70
72940;DHT22;61094;51.154;13.570;2022-12-29T00:41:06;10.40;86.50
72940;DHT22;61094;51.154;13.570;2022-12-29T00:43:25;10.40;85.80
72940;DHT22;61094;51.154;13.570;2022-12-29T00:45:42;10.50;87.70
72940;DHT22;61094;51.154;13.570;2022-12-29T00:47:44;10.50;88.60
72940;DHT22;61094;51.154;13.570;2022-12-29T00:49:45;10.50;87.20
72940;DHT22;61094;51.154;13.570;2022-12-29T00:51:46;10.50;87.30
72940;DHT22;61094;51.154;13.570;2022-12-29T00:53:48;10.50;89.20
72940;DHT22;61094;51.154;13.570;2022-12-29T00:55:50;10.50;90.00
72940;DHT22;61094;51.154;13.570;2022-12-29T00:57:51;10.50;90.10
72940;DHT22;61094;51.154;13.570;2022-12-29T00:59:53;10.50;90.50
72940;DHT22;61094;51.154;13.570;2022-12-29T01:01:56;10.50;91.10
72940;DHT22;61094;51.154;13.570;2022-12-29T01:03:58;10.50;91.40
72940;DHT22;61094;51.154;13.570;2022-12-29T01:06:00;10.40;91.90
72940;DHT22;61094;51.154;13.570;2022-12-29T01:08:02;10.40;92.50
72940;DHT22;61094;51.154;13.570;2022-12-29T01:10:04;10.40;92.70
72940;DHT22;61094;51.154;13.570;2022-12-29T01:12:11;10.40;92.70
72940;DHT22;61094;51.154;13.570;2022-12-29T01:14:14;10.40;92.70
72940;DHT22;61094;51.154;13.570;2022-12-29T01:16:15;10.40;92.50
72940;DHT22;61094;51.154;13.570;2022-12-29T01:18:18;10.40;92.80
72940;DHT22;61094;51.154;13.570;2022-12-29T01:20:20;10.40;92.90
72940;DHT22;61094;51.154;13.570;2022-12-29T01:22:22;10.40;93.40
72940;DHT22;61094;51.154;13.570;2022-12-29T01:24:24;10.40;93.60
72940;DHT22;61094;51.154;13.570;2022-12-29T01:26:26;10.40;93.80
72940;DHT22;61094;51.154;13.570;2022-12-29T01:28:28;10.40;94.00
72940;DHT22;61094;51.154;13.570;2022-12-29T01:30:30;10.30;94.40
72940;DHT22;61094;51.154;13.570;2022-12-29T01:32:31;10.30;94.60
72940;DHT22;61094;51.154;13.570;2022-12-29T01:34:34;10.30;94.90
72940;DHT22;61094;51.154;13.570;2022-12-29T01:36:37;10.20;95.60
72940;DHT22;61094;51.154;13.570;2022-12-29T01:38:40;10.20;96.20
72940;DHT22;61094;51.154;13.570;2022-12-29T01:40:45;10.10;96.60
72940;DHT22;61094;51.154;13.570;2022-12-29T01:42:47;10.10;97.10
72940;DHT22;61094;51.154;13.570;2022-12-29T01:44:51;10.00;97.60
72940;DHT22;61094;51.154;13.570;2022-12-29T01:46:53;9.90;98.20
72940;DHT22;61094;51.154;13.570;2022-12-29T01:48:59;9.90;98.60
72940;DHT22;61094;51.154;13.570;2022-12-29T01:51:05;9.80;98.90
72940;DHT22;61094;51.154;13.570;2022-12-29T01:53:10;9.70;99.20
72940;DHT22;61094;51.154;13.570;2022-12-29T01:55:12;9.70;99.70
72940;DHT22;61094;51.154;13.570;2022-12-29T01:57:18;9.60;99.90
72940;DHT22;61094;51.154;13.570;2022-12-29T01:59:24;9.60;99.90
72940;DHT22;61094;51.154;13.570;2022-12-29T02:01:28;9.50;99.90
72940;DHT22;61094;51.154;13.570;2022-12-29T02:03:30;9.50;99.90
72940;DHT22;61094;51.154;13.570;2022-12-29T02:05:38;9.50;99.90
72940;DHT22;61094;51.154;13.570;2022-12-29T02:07:42;9.50;99.90
72940;DHT22;61094;51.154;13.570;2022-12-29T02:09:46;9.40;99.90
72940;DHT22;61094;51.154;13.570;2022-12-29T02:11:49;9.40;99.90
72940;DHT22;61094;51.154;13.570;2022-12-29T02:13:52;9.40;99.90
72940;DHT22;61094;51.154;13.570;2022-12-29T02:16:02;9.40;99.90
72940;DHT22;61094;51.154;13.570;2022-12-29T02:18:16;9.40;99.90
72940;DHT22;61094;51.154;13.570;2022-12-29T02:20:42;9.40;99.90
72940;DHT22;61094;51.154;13.570;2022-12-29T02:22:58;9.40;99.90
72940;DHT22;61094;51.154;13.570;2022-12-29T02:25:41;9.50;99.90
72940;DHT22;61094;51.154;13.570;2022-12-29T02:28:01;9.50;99.90
72940;DHT22;61094;51.154;13.570;2022-12-29T02:30:09;9.60;99.90
72940;DHT22;61094;51.154;13.570;2022-12-29T02:32:19;9.60;99.90
72940;DHT22;61094;51.154;13.570;2022-12-29T02:34:33;9.70;99.90
72940;DHT22;61094;51.154;13.570;2022-12-29T02:36:42;9.70;99.90
72940;DHT22;61094;51.154;13.570;2022-12-29T02:38:55;9.70;99.90
72940;DHT22;61094;51.154;13.570;2022-12-29T02:41:04;9.80;99.90
72940;DHT22;61094;51.154;13.570;2022-12-29T02:43:14;9.80;99.90
72940;DHT22;61094;51.154;13.570;2022-12-29T02:45:24;9.80;99.90
72940;DHT22;61094;51.154;13.570;2022-12-29T02:47:35;9.80;99.90
72940;DHT22;61094;51.154;13.570;2022-12-29T02:49:45;9.80;99.90
72940;DHT22;61094;51.154;13.570;2022-12-29T02:51:52;9.90;99.90
72940;DHT22;61094;51.154;13.570;2022-12-29T02:53:58;9.90;99.90
72940;DHT22;61094;51.154;13.570;2022-12-29T02:56:18;9.90;99.90
72940;DHT22;61094;51.154;13.570;2022-12-29T02:58:23;10.00;99.90
72940;DHT22;61094;51.154;13.570;2022-12-29T03:00:24;10.00;99.60
72940;DHT22;61094;51.154;13.570;2022-12-29T03:03:03;10.10;99.50
72940;DHT22;61094;51.154;13.570;2022-12-29T03:05:17;10.10;99.70
72940;DHT22;61094;51.154;13.570;2022-12-29T03:07:27;10.10;99.90
72940;DHT22;61094;51.154;13.570;2022-12-29T03:09:37;10.20;99.60
72940;DHT22;61094;51.154;13.570;2022-12-29T03:11:48;10.20;99.30
72940;DHT22;61094;51.154;13.570;2022-12-29T03:14:15;10.30;99.20
72940;DHT22;61094;51.154;13.570;2022-12-29T03:16:43;10.30;98.10
72940;DHT22;61094;51.154;13.570;2022-12-29T03:18:51;10.40;98.30
72940;DHT22;61094;51.154;13.570;2022-12-29T03:21:00;10.40;98.50
72940;DHT22;61094;51.154;13.570;2022-12-29T03:23:05;10.40;98.30
72940;DHT22;61094;51.154;13.570;2022-12-29T03:25:14;10.50;97.50
72940;DHT22;61094;51.154;13.570;2022-12-29T03:27:19;10.50;98.00
72940;DHT22;61094;51.154;13.570;2022-12-29T03:29:21;10.50;98.60
72940;DHT22;61094;51.154;13.570;2022-12-29T03:31:24;10.50;97.50
72940;DHT22;61094;51.154;13.570;2022-12-29T03:33:28;10.50;97.10
72940;DHT22;61094;51.154;13.570;2022-12-29T03:35:38;10.50;98.20
72940;DHT22;61094;51.154;13.570;2022-12-29T03:37:50;10.60;97.70
72940;DHT22;61094;51.154;13.570;2022-12-29T03:39:54;10.60;97.60
72940;DHT22;61094;51.154;13.570;2022-12-29T03:41:59;10.60;97.60
72940;DHT22;61094;51.154;13.570;2022-12-29T03:44:04;10.70;98.30
72940;DHT22;61094;51.154;13.570;2022-12-29T03:46:08;10.60;97.50
72940;DHT22;61094;51.154;13.570;2022-12-29T03:48:10;10.60;97.30
72940;DHT22;61094;51.154;13.570;2022-12-29T03:50:15;10.70;98.00
72940;DHT22;61094;51.154;13.570;2022-12-29T03:52:18;10.70;97.50
72940;DHT22;61094;51.154;13.570;2022-12-29T03:54:21;10.70;97.70
72940;DHT22;61094;51.154;13.570;2022-12-29T03:56:23;10.70;97.60
72940;DHT22;61094;51.154;13.570;2022-12-29T03:58:27;10.80;96.50
72940;DHT22;61094;51.154;13.570;2022-12-29T04:00:40;10.80;97.20
72940;DHT22;61094;51.154;13.570;2022-12-29T04:02:42;10.90;96.80
72940;DHT22;61094;51.154;13.570;2022-12-29T04:04:48;10.90;97.20
72940;DHT22;61094;51.154;13.570;2022-12-29T04:06:49;10.90;96.80
72940;DHT22;61094;51.154;13.570;2022-12-29T04:08:52;10.90;96.10
72940;DHT22;61094;51.154;13.570;2022-12-29T04:10:55;11.00;95.80
72940;DHT22;61094;51.154;13.570;2022-12-29T04:12:57;11.00;96.30
72940;DHT22;61094;51.154;13.570;2022-12-29T04:14:59;11.00;95.90
72940;DHT22;61094;51.154;13.570;2022-12-29T04:17:01;11.10;96.10
72940;DHT22;61094;51.154;13.570;2022-12-29T04:19:04;11.10;94.80
72940;DHT22;61094;51.154;13.570;2022-12-29T04:21:07;11.20;95.50
72940;DHT22;61094;51.154;13.570;2022-12-29T04:23:12;11.20;95.90
72940;DHT22;61094;51.154;13.570;2022-12-29T04:25:15;11.20;94.80
72940;DHT22;61094;51.154;13.570;2022-12-29T04:27:17;11.30;94.90
72940;DHT22;61094;51.154;13.570;2022-12-29T04:29:42;11.30;95.40
72940;DHT22;61094;51.154;13.570;2022-12-29T04:32:00;11.30;95.40
72940;DHT22;61094;51.154;13.570;2022-12-29T04:34:04;11.30;95.00
72940;DHT22;61094;51.154;13.570;2022-12-29T04:36:07;11.30;95.70
72940;DHT22;61094;51.154;13.570;2022-12-29T04:38:10;11.30;94.80
72940;DHT22;61094;51.154;13.570;2022-12-29T04:40:15;11.40;94.80
72940;DHT22;61094;51.154;13.570;2022-12-29T04:42:16;11.40;94.70
72940;DHT22;61094;51.154;13.570;2022-12-29T04:44:18;11.40;94.90
72940;DHT22;61094;51.154;13.570;2022-12-29T04:46:32;11.40;94.50
72940;DHT22;61094;51.154;13.570;2022-12-29T04:48:36;11.50;94.60
72940;DHT22;61094;51.154;13.570;2022-12-29T04:50:47;11.50;95.40
72940;DHT22;61094;51.154;13.570;2022-12-29T04:52:52;11.50;95.60
72940;DHT22;61094;51.154;13.570;2022-12-29T04:54:55;11.50;95.60
72940;DHT22;61094;51.154;13.570;2022-12-29T04:56:58;11.50;96.00
72940;DHT22;61094;51.154;13.570;2022-12-29T04:59:01;11.50;96.00
72940;DHT22;61094;51.154;13.570;2022-12-29T05:01:02;11.40;96.40
72940;DHT22;61094;51.154;13.570;2022-12-29T05:03:05;11.40;96.50
72940;DHT22;61094;51.154;13.570;2022-12-29T05:05:07;11.40;96.50
72940;DHT22;61094;51.154;13.570;2022-12-29T05:07:13;11.40;96.40
72940;DHT22;61094;51.154;13.570;2022-12-29T05:09:15;11.40;96.90
72940;DHT22;61094;51.154;13.570;2022-12-29T05:11:16;11.40;96.80
72940;DHT22;61094;51.154;13.570;2022-12-29T05:13:22;11.40;96.80
72940;DHT22;61094;51.154;13.570;2022-12-29T05:15:24;11.40;96.30
72940;DHT22;61094;51.154;13.570;2022-12-29T05:17:26;11.40;96.20
72940;DHT22;61094;51.154;13.570;2022-12-29T05:19:27;11.40;96.00
72940;DHT22;61094;51.154;13.570;2022-12-29T05:21:29;11.40;95.20
72940;DHT22;61094;51.154;13.570;2022-12-29T05:23:32;11.40;95.60
72940;DHT22;61094;51.154;13.570;2022-12-29T05:25:38;11.50;95.90
72940;DHT22;61094;51.154;13.570;2022-12-29T05:27:50;11.50;95.90
72940;DHT22;61094;51.154;13.570;2022-12-29T05:30:06;11.50;94.60
72940;DHT22;61094;51.154;13.570;2022-12-29T05:32:08;11.50;94.70
72940;DHT22;61094;51.154;13.570;2022-12-29T05:34:11;11.50;95.30
72940;DHT22;61094;51.154;13.570;2022-12-29T05:36:14;11.50;94.90
72940;DHT22;61094;51.154;13.570;2022-12-29T05:38:20;11.60;94.50
72940;DHT22;61094;51.154;13.570;2022-12-29T05:40:22;11.50;94.70
72940;DHT22;61094;51.154;13.570;2022-12-29T05:42:26;11.50;93.70
72940;DHT22;61094;51.154;13.570;2022-12-29T05:44:48;11.60;94.50
72940;DHT22;61094;51.154;13.570;2022-12-29T05:47:14;11.60;94.30
72940;DHT22;61094;51.154;13.570;2022-12-29T05:49:25;11.60;94.50
72940;DHT22;61094;51.154;13.570;2022-12-29T05:51:32;11.60;94.30
72940;DHT22;61094;51.154;13.570;2022-12-29T05:53:34;11.60;94.80
72940;DHT22;61094;51.154;13.570;2022-12-29T05:55:36;11.60;93.60
72940;DHT22;61094;51.154;13.570;2022-12-29T05:57:38;11.60;94.40
72940;DHT22;61094;51.154;13.570;2022-12-29T05:59:47;11.60;94.30
72940;DHT22;61094;51.154;13.570;2022-12-29T06:01:49;11.50;94.40
72940;DHT22;61094;51.154;13.570;2022-12-29T06:03:52;11.50;94.10
72940;DHT22;61094;51.154;13.570;2022-12-29T06:05:55;11.50;93.60
72940;DHT22;61094;51.154;13.570;2022-12-29T06:07:56;11.50;94.10
72940;DHT22;61094;51.154;13.570;2022-12-29T06:09:59;11.50;93.70
72940;DHT22;61094;51.154;13.570;2022-12-29T06:12:02;11.60;93.20
72940;DHT22;61094;51.154;13.570;2022-12-29T06:14:04;11.50;93.80
72940;DHT22;61094;51.154;13.570;2022-12-29T06:16:07;11.50;94.10
72940;DHT22;61094;51.154;13.570;2022-12-29T06:18:10;11.60;94.10
72940;DHT22;61094;51.154;13.570;2022-12-29T06:20:13;11.60;93.40
72940;DHT22;61094;51.154;13.570;2022-12-29T06:22:15;11.50;94.10
72940;DHT22;61094;51.154;13.570;2022-12-29T06:24:17;11.60;93.30
72940;DHT22;61094;51.154;13.570;2022-12-29T06:26:18;11.60;93.50
72940;DHT22;61094;51.154;13.570;2022-12-29T06:28:22;11.60;93.30
72940;DHT22;61094;51.154;13.570;2022-12-29T06:30:24;11.60;93.40
72940;DHT22;61094;51.154;13.570;2022-12-29T06:32:26;11.60;93.10
72940;DHT22;61094;51.154;13.570;2022-12-29T06:34:30;11.50;93.20
72940;DHT22;61094;51.154;13.570;2022-12-29T06:36:33;11.60;93.60
72940;DHT22;61094;51.154;13.570;2022-12-29T06:38:35;11.50;92.80
72940;DHT22;61094;51.154;13.570;2022-12-29T06:40:36;11.50;93.40
72940;DHT22;61094;51.154;13.570;2022-12-29T06:42:53;11.50;93.20
72940;DHT22;61094;51.154;13.570;2022-12-29T06:45:21;11.50;93.60
72940;DHT22;61094;51.154;13.570;2022-12-29T06:47:23;11.50;93.40
72940;DHT22;61094;51.154;13.570;2022-12-29T06:49:25;11.50;93.30
72940;DHT22;61094;51.154;13.570;2022-12-29T06:51:26;11.40;93.90
72940;DHT22;61094;51.154;13.570;2022-12-29T06:53:29;11.40;93.00
72940;DHT22;61094;51.154;13.570;2022-12-29T06:55:31;11.40;93.40
72940;DHT22;61094;51.154;13.570;2022-12-29T06:57:33;11.30;93.80
72940;DHT22;61094;51.154;13.570;2022-12-29T06:59:34;11.30;93.70
72940;DHT22;61094;51.154;13.570;2022-12-29T07:01:36;11.30;94.60
72940;DHT22;61094;51.154;13.570;2022-12-29T07:03:41;11.30;94.40
72940;DHT22;61094;51.154;13.570;2022-12-29T07:05:42;11.30;94.10
72940;DHT22;61094;51.154;13.570;2022-12-29T07:07:44;11.20;94.20
72940;DHT22;61094;51.154;13.570;2022-12-29T07:09:47;11.30;94.50
72940;DHT22;61094;51.154;13.570;2022-12-29T07:11:49;11.20;94.60
72940;DHT22;61094;51.154;13.570;2022-12-29T07:13:51;11.20;94.90
72940;DHT22;61094;51.154;13.570;2022-12-29T07:15:53;11.20;95.30
72940;DHT22;61094;51.154;13.570;2022-12-29T07:17:54;11.20;94.90
72940;DHT22;61094;51.154;13.570;2022-12-29T07:19:56;11.20;95.20
72940;DHT22;61094;51.154;13.570;2022-12-29T07:21:58;11.10;95.00
72940;DHT22;61094;51.154;13.570;2022-12-29T07:23:59;11.10;95.90
72940;DHT22;61094;51.154;13.570;2022-12-29T07:26:05;11.10;95.60
72940;DHT22;61094;51.154;13.570;2022-12-29T07:28:07;11.10;95.60
72940;DHT22;61094;51.154;13.570;2022-12-29T07:30:10;11.10;96.00
72940;DHT22;61094;51.154;13.570;2022-12-29T07:32:11;11.10;96.10
72940;DHT22;61094;51.154;13.570;2022-12-29T07:34:13;11.10;96.10
72940;DHT22;61094;51.154;13.570;2022-12-29T07:36:16;11.10;95.80
72940;DHT22;61094;51.154;13.570;2022-12-29T07:38:17;11.10;95.80
72940;DHT22;61094;51.154;13.570;2022-12-29T07:40:19;11.00;95.70
72940;DHT22;61094;51.154;13.570;2022-12-29T07:42:22;11.00;96.20
72940;DHT22;61094;51.154;13.570;2022-12-29T07:44:27;11.10;96.20
72940;DHT22;61094;51.154;13.570;2022-12-29T07:46:50;11.10;96.20
72940;DHT22;61094;51.154;13.570;2022-12-29T07:48:52;11.10;95.60
72940;DHT22;61094;51.154;13.570;2022-12-29T07:50:54;11.10;96.30
72940;DHT22;61094;51.154;13.570;2022-12-29T07:52:55;11.10;97.00
72940;DHT22;61094;51.154;13.570;2022-12-29T07:54:57;11.10;97.30
72940;DHT22;61094;51.154;13.570;2022-12-29T07:56:59;11.20;97.20
72940;DHT22;61094;51.154;13.570;2022-12-29T07:59:02;11.20;95.80
72940;DHT22;61094;51.154;13.570;2022-12-29T08:01:04;11.30;96.10
72940;DHT22;61094;51.154;13.570;2022-12-29T08:03:06;11.30;96.10
72940;DHT22;61094;51.154;13.570;2022-12-29T08:05:08;11.30;95.90
72940;DHT22;61094;51.154;13.570;2022-12-29T08:07:10;11.40;95.30
72940;DHT22;61094;51.154;13.570;2022-12-29T08:09:11;11.50;94.30
72940;DHT22;61094;51.154;13.570;2022-12-29T08:11:13;11.50;95.30
72940;DHT22;61094;51.154;13.570;2022-12-29T08:13:15;11.50;95.30
72940;DHT22;61094;51.154;13.570;2022-12-29T08:15:18;11.60;95.00
72940;DHT22;61094;51.154;13.570;2022-12-29T08:17:20;11.60;95.10
72940;DHT22;61094;51.154;13.570;2022-12-29T08:19:22;11.60;94.80
72940;DHT22;61094;51.154;13.570;2022-12-29T08:21:23;11.70;94.80
72940;DHT22;61094;51.154;13.570;2022-12-29T08:23:25;11.70;93.80
72940;DHT22;61094;51.154;13.570;2022-12-29T08:25:27;11.70;93.90
72940;DHT22;61094;51.154;13.570;2022-12-29T08:27:28;11.70;94.10
72940;DHT22;61094;51.154;13.570;2022-12-29T08:29:30;11.70;93.50
72940;DHT22;61094;51.154;13.570;2022-12-29T08:31:34;11.70;93.40
72940;DHT22;61094;51.154;13.570;2022-12-29T08:33:35;11.70;93.50
72940;DHT22;61094;51.154;13.570;2022-12-29T08:35:37;11.70;92.20
72940;DHT22;61094;51.154;13.570;2022-12-29T08:37:39;11.70;92.50
72940;DHT22;61094;51.154;13.570;2022-12-29T08:39:40;11.80;91.80
72940;DHT22;61094;51.154;13.570;2022-12-29T08:41:42;11.80;92.10
72940;DHT22;61094;51.154;13.570;2022-12-29T08:43:45;11.80;91.90
72940;DHT22;61094;51.154;13.570;2022-12-29T08:45:47;11.70;92.10
72940;DHT22;61094;51.154;13.570;2022-12-29T08:47:50;11.80;92.20
72940;DHT22;61094;51.154;13.570;2022-12-29T08:49:52;11.70;91.50
72940;DHT22;61094;51.154;13.570;2022-12-29T08:51:53;11.70;91.90
72940;DHT22;61094;51.154;13.570;2022-12-29T08:53:55;11.70;91.60
72940;DHT22;61094;51.154;13.570;2022-12-29T08:55:59;11.70;91.30
72940;DHT22;61094;51.154;13.570;2022-12-29T08:58:01;11.70;90.20
72940;DHT22;61094;51.154;13.570;2022-12-29T09:00:04;11.70;90.40
72940;DHT22;61094;51.154;13.570;2022-12-29T09:02:08;11.70;90.60
72940;DHT22;61094;51.154;13.570;2022-12-29T09:04:12;11.80;91.70
72940;DHT22;61094;51.154;13.570;2022-12-29T09:06:15;11.80;90.60
72940;DHT22;61094;51.154;13.570;2022-12-29T09:08:18;11.80;91.40
72940;DHT22;61094;51.154;13.570;2022-12-29T09:10:19;11.80;89.60
72940;DHT22;61094;51.154;13.570;2022-12-29T09:12:21;11.80;89.70
72940;DHT22;61094;51.154;13.570;2022-12-29T09:14:23;11.90;88.30
72940;DHT22;61094;51.154;13.570;2022-12-29T09:16:24;11.90;89.20
72940;DHT22;61094;51.154;13.570;2022-12-29T09:18:27;12.00;87.90
72940;DHT22;61094;51.154;13.570;2022-12-29T09:20:30;12.00;87.30
72940;DHT22;61094;51.154;13.570;2022-12-29T09:22:31;12.00;87.70
72940;DHT22;61094;51.154;13.570;2022-12-29T09:24:33;12.10;87.40
72940;DHT22;61094;51.154;13.570;2022-12-29T09:26:35;12.10;87.00
72940;DHT22;61094;51.154;13.570;2022-12-29T09:28:36;12.20;86.50
72940;DHT22;61094;51.154;13.570;2022-12-29T09:30:38;12.40;83.70
72940;DHT22;61094;51.154;13.570;2022-12-29T09:32:40;12.50;82.20
72940;DHT22;61094;51.154;13.570;2022-12-29T09:34:42;12.60;81.70
72940;DHT22;61094;51.154;13.570;2022-12-29T09:36:45;12.60;81.90
72940;DHT22;61094;51.154;13.570;2022-12-29T09:38:47;12.80;81.90
72940;DHT22;61094;51.154;13.570;2022-12-29T09:40:50;12.90;78.40
72940;DHT22;61094;51.154;13.570;2022-12-29T09:43:05;13.00;79.70
72940;DHT22;61094;51.154;13.570;2022-12-29T09:45:12;13.00;76.20
72940;DHT22;61094;51.154;13.570;2022-12-29T09:47:16;13.20;77.30
72940;DHT22;61094;51.154;13.570;2022-12-29T09:49:25;13.40;77.90
72940;DHT22;61094;51.154;13.570;2022-12-29T09:51:29;13.70;74.50
72940;DHT22;61094;51.154;13.570;2022-12-29T09:53:37;13.90;70.00
72940;DHT22;61094;51.154;13.570;2022-12-29T09:55:42;14.20;72.30
72940;DHT22;61094;51.154;13.570;2022-12-29T09:57:48;14.50;67.10
72940;DHT22;61094;51.154;13.570;2022-12-29T09:59:53;14.70;65.50
72940;DHT22;61094;51.154;13.570;2022-12-29T10:01:59;14.90;62.80
72940;DHT22;61094;51.154;13.570;2022-12-29T10:04:06;15.10;65.20
72940;DHT22;61094;51.154;13.570;2022-12-29T10:06:11;15.30;64.50
72940;DHT22;61094;51.154;13.570;2022-12-29T10:08:22;15.50;56.50
72940;DHT22;61094;51.154;13.570;2022-12-29T10:10:34;15.60;62.70
72940;DHT22;61094;51.154;13.570;2022-12-29T10:12:39;15.80;56.30
72940;DHT22;61094;51.154;13.570;2022-12-29T10:14:58;16.00;55.20
72940;DHT22;61094;51.154;13.570;2022-12-29T10:17:12;16.20;53.90
72940;DHT22;61094;51.154;13.570;2022-12-29T10:19:30;16.30;52.00
72940;DHT22;61094;51.154;13.570;2022-12-29T10:21:42;16.60;50.50
72940;DHT22;61094;51.154;13.570;2022-12-29T10:23:49;16.70;50.30
72940;DHT22;61094;51.154;13.570;2022-12-29T10:25:54;16.80;49.60
72940;DHT22;61094;51.154;13.570;2022-12-29T10:28:00;16.90;49.00
72940;DHT22;61094;51.154;13.570;2022-12-29T10:30:05;17.00;48.50
72940;DHT22;61094;51.154;13.570;2022-12-29T10:32:17;17.10;49.20
72940;DHT22;61094;51.154;13.570;2022-12-29T10:34:25;17.30;48.20
72940;DHT22;61094;51.154;13.570;2022-12-29T10:36:34;17.30;47.90
72940;DHT22;61094;51.154;13.570;2022-12-29T10:38:42;17.40;47.50
72940;DHT22;61094;51.154;13.570;2022-12-29T10:40:50;17.30;47.80
72940;DHT22;61094;51.154;13.570;2022-12-29T10:42:57;17.10;47.30
72940;DHT22;61094;51.154;13.570;2022-12-29T10:44:59;16.80;48.30
72940;DHT22;61094;51.154;13.570;2022-12-29T10:47:04;16.50;48.80
72940;DHT22;61094;51.154;13.570;2022-12-29T10:49:14;16.20;49.10
72940;DHT22;61094;51.154;13.570;2022-12-29T10:51:21;15.80;50.00
72940;DHT22;61094;51.154;13.570;2022-12-29T10:53:25;15.50;51.10
72940;DHT22;61094;51.154;13.570;2022-12-29T10:55:32;15.20;51.80
72940;DHT22;61094;51.154;13.570;2022-12-29T10:57:36;14.90;52.70
72940;DHT22;61094;51.154;13.570;2022-12-29T10:59:42;14.80;54.30
72940;DHT22;61094;51.154;13.570;2022-12-29T11:01:50;14.70;55.80
72940;DHT22;61094;51.154;13.570;2022-12-29T11:03:59;14.60;57.30
72940;DHT22;61094;51.154;13.570;2022-12-29T11:06:08;14.50;56.80
72940;DHT22;61094;51.154;13.570;2022-12-29T11:08:15;14.50;57.10
72940;DHT22;61094;51.154;13.570;2022-12-29T11:10:20;14.40;58.70
72940;DHT22;61094;51.154;13.570;2022-12-29T11:12:31;14.30;59.60
72940;DHT22;61094;51.154;13.570;2022-12-29T11:14:33;14.30;60.30
72940;DHT22;61094;51.154;13.570;2022-12-29T11:16:37;14.20;60.10
72940;DHT22;61094;51.154;13.570;2022-12-29T11:18:39;14.20;61.80
72940;DHT22;61094;51.154;13.570;2022-12-29T11:20:43;14.20;61.00
72940;DHT22;61094;51.154;13.570;2022-12-29T11:22:44;14.10;62.10
72940;DHT22;61094;51.154;13.570;2022-12-29T11:24:47;14.00;62.90
72940;DHT22;61094;51.154;13.570;2022-12-29T11:26:50;14.00;64.70
72940;DHT22;61094;51.154;13.570;2022-12-29T11:29:16;14.10;65.00
72940;DHT22;61094;51.154;13.570;2022-12-29T11:31:21;14.10;66.10
72940;DHT22;61094;51.154;13.570;2022-12-29T11:33:27;14.10;65.30
72940;DHT22;61094;51.154;13.570;2022-12-29T11:35:31;14.10;65.10
72940;DHT22;61094;51.154;13.570;2022-12-29T11:37:38;14.00;64.90
72940;DHT22;61094;51.154;13.570;2022-12-29T11:39:45;14.00;65.70
72940;DHT22;61094;51.154;13.570;2022-12-29T11:41:51;14.00;65.00
72940;DHT22;61094;51.154;13.570;2022-12-29T11:43:56;14.10;65.60
72940;DHT22;61094;51.154;13.570;2022-12-29T11:45:58;14.10;64.30
72940;DHT22;61094;51.154;13.570;2022-12-29T11:48:05;14.10;64.60
72940;DHT22;61094;51.154;13.570;2022-12-29T11:50:17;14.10;66.80
72940;DHT22;61094;51.154;13.570;2022-12-29T11:52:22;14.10;65.50
72940;DHT22;61094;51.154;13.570;2022-12-29T11:54:26;14.10;68.10
72940;DHT22;61094;51.154;13.570;2022-12-29T11:56:34;14.10;67.30
72940;DHT22;61094;51.154;13.570;2022-12-29T11:58:37;14.10;65.80
72940;DHT22;61094;51.154;13.570;2022-12-29T12:00:39;14.00;67.70
72940;DHT22;61094;51.154;13.570;2022-12-29T12:02:45;14.00;68.40
72940;DHT22;61094;51.154;13.570;2022-12-29T12:04:53;14.00;68.50
72940;DHT22;61094;51.154;13.570;2022-12-29T12:07:03;14.00;69.10
72940;DHT22;61094;51.154;13.570;2022-12-29T12:09:14;13.90;67.90
72940;DHT22;61094;51.154;13.570;2022-12-29T12:11:18;13.90;67.40
72940;DHT22;61094;51.154;13.570;2022-12-29T12:13:25;14.00;66.70
72940;DHT22;61094;51.154;13.570;2022-12-29T12:15:32;14.00;67.70
72940;DHT22;61094;51.154;13.570;2022-12-29T12:17:43;14.30;66.50
72940;DHT22;61094;51.154;13.570;2022-12-29T12:19:49;14.40;63.80
72940;DHT22;61094;51.154;13.570;2022-12-29T12:21:58;14.50;62.50
72940;DHT22;61094;51.154;13.570;2022-12-29T12:24:15;14.50;63.00
72940;DHT22;61094;51.154;13.570;2022-12-29T12:26:27;14.50;61.60
72940;DHT22;61094;51.154;13.570;2022-12-29T12:28:40;14.60;61.90
72940;DHT22;61094;51.154;13.570;2022-12-29T12:30:45;14.60;59.00
72940;DHT22;61094;51.154;13.570;2022-12-29T12:32:54;14.70;60.30
72940;DHT22;61094;51.154;13.570;2022-12-29T12:34:57;14.80;57.50
72940;DHT22;61094;51.154;13.570;2022-12-29T12:37:11;14.90;55.70
72940;DHT22;61094;51.154;13.570;2022-12-29T12:39:26;15.00;57.20
72940;DHT22;61094;51.154;13.570;2022-12-29T12:41:35;15.20;54.90
72940;DHT22;61094;51.154;13.570;2022-12-29T12:43:43;15.30;54.10
72940;DHT22;61094;51.154;13.570;2022-12-29T12:45:50;15.40;53.10
72940;DHT22;61094;51.154;13.570;2022-12-29T12:48:09;15.50;52.30
72940;DHT22;61094;51.154;13.570;2022-12-29T12:50:35;15.50;52.20
72940;DHT22;61094;51.154;13.570;2022-12-29T12:52:58;15.60;52.30
72940;DHT22;61094;51.154;13.570;2022-12-29T12:55:15;15.60;51.70
72940;DHT22;61094;51.154;13.570;2022-12-29T12:57:25;15.60;51.50
72940;DHT22;61094;51.154;13.570;2022-12-29T12:59:41;15.70;51.40
72940;DHT22;61094;51.154;13.570;2022-12-29T13:01:53;15.70;51.40
72940;DHT22;61094;51.154;13.570;2022-12-29T13:04:19;15.70;51.40
72940;DHT22;61094;51.154;13.570;2022-12-29T13:06:37;15.70;51.30